JES0104 SABE-SACO
Flight info
| Callsign | JES0104 |
|---|---|
| Flight time | 1h 46m |
| Altitude | 36000 |
| Route | ATOVO4B ATOVO UW5 ASISA ASISA1Q |
| Aircraft | A320/M-SDE3FGHIRWY/LB1 |
Departure
| Time | 2026-05-03 21:45 |
|---|---|
| Airport | Aeroparque Jorge Newbery (SABE) |
Arrival
| Time | 2026-05-03 23:32 |
|---|---|
| Airport | Ingeniero Aeronáutico Ambrosio L.V. Taravella International Airport (SACO) |
| Time | Latitude | Longitude | Altitude | Speed | Heading |
|---|---|---|---|---|---|
| 2026-05-03 20:18 | -34.55659 | -58.41533 | 26 ft | 0 kts | 12° |
| 2026-05-03 20:30 | -34.55658 | -58.41533 | 26 ft | 0 kts | 7° |
| 2026-05-03 21:15 | -34.55661 | -58.41534 | 25 ft | 3 kts | 7° |
| 2026-05-03 21:15 | -34.55683 | -58.41537 | 27 ft | 3 kts | 355° |
| 2026-05-03 21:16 | -34.55703 | -58.41530 | 27 ft | 3 kts | 318° |
| 2026-05-03 21:16 | -34.55717 | -58.41513 | 26 ft | 3 kts | 304° |
| 2026-05-03 21:16 | -34.55729 | -58.41489 | 29 ft | 3 kts | 297° |
| 2026-05-03 21:16 | -34.55731 | -58.41485 | 30 ft | 0 kts | 297° |
| 2026-05-03 21:19 | -34.55728 | -58.41490 | 29 ft | 1 kts | 297° |
| 2026-05-03 21:19 | -34.55722 | -58.41504 | 30 ft | 3 kts | 297° |
| 2026-05-03 21:20 | -34.55720 | -58.41539 | 28 ft | 5 kts | 259° |
| 2026-05-03 21:20 | -34.55743 | -58.41567 | 29 ft | 5 kts | 216° |
| 2026-05-03 21:20 | -34.55772 | -58.41589 | 29 ft | 5 kts | 213° |
| 2026-05-03 21:20 | -34.55802 | -58.41588 | 30 ft | 4 kts | 145° |
| 2026-05-03 21:21 | -34.55817 | -58.41555 | 26 ft | 5 kts | 117° |
| 2026-05-03 21:21 | -34.55833 | -58.41517 | 25 ft | 6 kts | 117° |
| 2026-05-03 21:21 | -34.55853 | -58.41472 | 27 ft | 7 kts | 117° |
| 2026-05-03 21:21 | -34.55876 | -58.41417 | 26 ft | 8 kts | 117° |
| 2026-05-03 21:22 | -34.55907 | -58.41348 | 29 ft | 10 kts | 118° |
| 2026-05-03 21:22 | -34.55938 | -58.41279 | 29 ft | 9 kts | 123° |
| 2026-05-03 21:22 | -34.55976 | -58.41217 | 27 ft | 9 kts | 127° |
| 2026-05-03 21:22 | -34.56016 | -58.41154 | 28 ft | 10 kts | 128° |
| 2026-05-03 21:23 | -34.56058 | -58.41088 | 29 ft | 10 kts | 128° |
| 2026-05-03 21:23 | -34.56102 | -58.41019 | 29 ft | 10 kts | 127° |
| 2026-05-03 21:23 | -34.56144 | -58.40946 | 28 ft | 11 kts | 123° |
| 2026-05-03 21:23 | -34.56171 | -58.40866 | 27 ft | 10 kts | 90° |
| 2026-05-03 21:24 | -34.56171 | -58.40841 | 25 ft | 0 kts | 97° |
| 2026-05-03 21:25 | -34.56175 | -58.40828 | 25 ft | 4 kts | 111° |
| 2026-05-03 21:26 | -34.56189 | -58.40799 | 27 ft | 4 kts | 122° |
| 2026-05-03 21:26 | -34.56208 | -58.40765 | 26 ft | 5 kts | 124° |
| 2026-05-03 21:26 | -34.56229 | -58.40727 | 28 ft | 5 kts | 125° |
| 2026-05-03 21:26 | -34.56230 | -58.40726 | 28 ft | 0 kts | 125° |
| 2026-05-03 21:28 | -34.56240 | -58.40708 | 29 ft | 5 kts | 125° |
| 2026-05-03 21:28 | -34.56261 | -58.40671 | 27 ft | 5 kts | 124° |
| 2026-05-03 21:29 | -34.56274 | -58.40648 | 27 ft | 0 kts | 124° |
| 2026-05-03 21:29 | -34.56277 | -58.40643 | 27 ft | 1 kts | 124° |
| 2026-05-03 21:29 | -34.56281 | -58.40635 | 28 ft | 0 kts | 124° |
| 2026-05-03 21:30 | -34.56282 | -58.40633 | 28 ft | 1 kts | 124° |
| 2026-05-03 21:31 | -34.56299 | -58.40604 | 30 ft | 6 kts | 125° |
| 2026-05-03 21:31 | -34.56326 | -58.40567 | 28 ft | 6 kts | 134° |
| 2026-05-03 21:31 | -34.56344 | -58.40546 | 28 ft | 0 kts | 137° |
| 2026-05-03 21:34 | -34.56345 | -58.40544 | 28 ft | 1 kts | 137° |
| 2026-05-03 21:34 | -34.56359 | -58.40530 | 25 ft | 4 kts | 139° |
| 2026-05-03 21:34 | -34.56371 | -58.40517 | 28 ft | 0 kts | 139° |
| 2026-05-03 21:39 | -34.56372 | -58.40516 | 25 ft | 1 kts | 139° |
| 2026-05-03 21:39 | -34.56386 | -58.40501 | 29 ft | 4 kts | 139° |
| 2026-05-03 21:39 | -34.56414 | -58.40471 | 26 ft | 6 kts | 138° |
| 2026-05-03 21:39 | -34.56416 | -58.40468 | 26 ft | 0 kts | 138° |
| 2026-05-03 21:42 | -34.56418 | -58.40467 | 30 ft | 1 kts | 138° |
| 2026-05-03 21:42 | -34.56437 | -58.40446 | 27 ft | 6 kts | 138° |
| 2026-05-03 21:43 | -34.56473 | -58.40406 | 28 ft | 6 kts | 138° |
| 2026-05-03 21:43 | -34.56512 | -58.40379 | 27 ft | 7 kts | 179° |
| 2026-05-03 21:43 | -34.56560 | -58.40414 | 30 ft | 8 kts | 236° |
| 2026-05-03 21:43 | -34.56536 | -58.40484 | 30 ft | 11 kts | 305° |
| 2026-05-03 21:44 | -34.56526 | -58.40500 | 26 ft | 0 kts | 305° |
| 2026-05-03 21:44 | -34.56509 | -58.40530 | 29 ft | 24 kts | 305° |
| 2026-05-03 21:44 | -34.56271 | -58.40951 | 31 ft | 94 kts | 303° |
| 2026-05-03 21:45 | -34.55806 | -58.41796 | 28 ft | 144 kts | 306° |
| 2026-05-03 21:45 | -34.55241 | -58.42858 | 546 ft | 150 kts | 306° |
| 2026-05-03 21:45 | -34.54678 | -58.43929 | 1246 ft | 150 kts | 317° |
| 2026-05-03 21:45 | -34.53845 | -58.44761 | 1672 ft | 162 kts | 329° |
| 2026-05-03 21:46 | -34.52827 | -58.45473 | 2064 ft | 177 kts | 338° |
| 2026-05-03 21:46 | -34.51589 | -58.45937 | 2349 ft | 200 kts | 351° |
| 2026-05-03 21:46 | -34.50108 | -58.45917 | 2711 ft | 227 kts | 9° |
| 2026-05-03 21:46 | -34.48571 | -58.45191 | 3300 ft | 248 kts | 30° |
| 2026-05-03 21:47 | -34.47124 | -58.44027 | 4133 ft | 256 kts | 30° |
| 2026-05-03 21:47 | -34.45579 | -58.42828 | 5022 ft | 264 kts | 28° |
| 2026-05-03 21:47 | -34.43999 | -58.41629 | 5862 ft | 272 kts | 28° |
| 2026-05-03 21:47 | -34.42395 | -58.40427 | 6723 ft | 277 kts | 28° |
| 2026-05-03 21:48 | -34.40735 | -58.39186 | 7527 ft | 283 kts | 27° |
| 2026-05-03 21:48 | -34.39002 | -58.38025 | 8360 ft | 285 kts | 16° |
| 2026-05-03 21:48 | -34.37083 | -58.37559 | 9182 ft | 281 kts | 354° |
| 2026-05-03 21:48 | -34.35214 | -58.38103 | 9988 ft | 276 kts | 328° |
| 2026-05-03 21:49 | -34.33729 | -58.39592 | 10427 ft | 288 kts | 305° |
| 2026-05-03 21:49 | -34.32587 | -58.41668 | 10754 ft | 305 kts | 300° |
| 2026-05-03 21:49 | -34.31465 | -58.43893 | 11398 ft | 312 kts | 299° |
| 2026-05-03 21:49 | -34.30329 | -58.46146 | 12118 ft | 316 kts | 299° |
| 2026-05-03 21:50 | -34.29140 | -58.48413 | 12821 ft | 322 kts | 304° |
| 2026-05-03 21:50 | -34.27670 | -58.50493 | 13514 ft | 328 kts | 309° |
| 2026-05-03 21:50 | -34.26118 | -58.52543 | 14188 ft | 332 kts | 309° |
| 2026-05-03 21:50 | -34.24539 | -58.54604 | 14816 ft | 336 kts | 309° |
| 2026-05-03 21:51 | -34.22936 | -58.56678 | 15438 ft | 339 kts | 309° |
| 2026-05-03 21:51 | -34.21315 | -58.58758 | 16059 ft | 342 kts | 309° |
| 2026-05-03 21:51 | -34.19665 | -58.60857 | 16692 ft | 345 kts | 309° |
| 2026-05-03 21:51 | -34.18016 | -58.62938 | 17319 ft | 349 kts | 309° |
| 2026-05-03 21:52 | -34.16324 | -58.65057 | 17945 ft | 352 kts | 309° |
| 2026-05-03 21:52 | -34.14606 | -58.67191 | 18539 ft | 356 kts | 309° |
| 2026-05-03 21:52 | -34.12867 | -58.69337 | 19096 ft | 359 kts | 309° |
| 2026-05-03 21:52 | -34.11111 | -58.71498 | 19661 ft | 362 kts | 309° |
| 2026-05-03 21:53 | -34.09337 | -58.73671 | 20221 ft | 365 kts | 309° |
| 2026-05-03 21:53 | -34.07602 | -58.75908 | 20772 ft | 364 kts | 302° |
| 2026-05-03 21:53 | -34.06470 | -58.78585 | 21284 ft | 358 kts | 282° |
| 2026-05-03 21:53 | -34.06220 | -58.81546 | 21797 ft | 355 kts | 263° |
| 2026-05-03 21:54 | -34.06823 | -58.84433 | 22308 ft | 357 kts | 250° |
| 2026-05-03 21:54 | -34.07686 | -58.87251 | 22834 ft | 359 kts | 250° |
| 2026-05-03 21:54 | -34.08571 | -58.90085 | 23374 ft | 362 kts | 250° |
| 2026-05-03 21:54 | -34.09460 | -58.92929 | 23856 ft | 364 kts | 250° |
| 2026-05-03 21:55 | -34.10354 | -58.95796 | 24037 ft | 365 kts | 250° |
| 2026-05-03 21:55 | -34.11245 | -58.98652 | 24084 ft | 364 kts | 250° |
| 2026-05-03 21:55 | -34.12136 | -59.01510 | 24084 ft | 364 kts | 250° |
| 2026-05-03 21:55 | -34.13015 | -59.04334 | 24084 ft | 363 kts | 250° |
| 2026-05-03 21:56 | -34.13901 | -59.07185 | 24079 ft | 363 kts | 250° |
| 2026-05-03 21:56 | -34.14790 | -59.10040 | 24081 ft | 363 kts | 250° |
| 2026-05-03 21:56 | -34.15673 | -59.12902 | 24073 ft | 363 kts | 252° |
| 2026-05-03 21:56 | -34.16030 | -59.15897 | 24075 ft | 364 kts | 274° |
| 2026-05-03 21:57 | -34.15267 | -59.18819 | 24071 ft | 373 kts | 297° |
| 2026-05-03 21:57 | -34.13446 | -59.21118 | 24338 ft | 392 kts | 321° |
| 2026-05-03 21:57 | -34.10866 | -59.22374 | 24752 ft | 412 kts | 343° |
| 2026-05-03 21:57 | -34.08005 | -59.22907 | 25143 ft | 417 kts | 344° |
| 2026-05-03 21:58 | -34.05178 | -59.23659 | 25542 ft | 416 kts | 339° |
| 2026-05-03 21:58 | -34.02369 | -59.24551 | 25943 ft | 416 kts | 336° |
| 2026-05-03 21:58 | -33.99737 | -59.25910 | 26322 ft | 409 kts | 323° |
| 2026-05-03 21:58 | -33.97434 | -59.27864 | 26710 ft | 403 kts | 312° |
| 2026-05-03 21:59 | -33.95526 | -59.30302 | 27101 ft | 399 kts | 304° |
| 2026-05-03 21:59 | -33.93733 | -59.32870 | 27495 ft | 401 kts | 304° |
| 2026-05-03 21:59 | -33.91962 | -59.35420 | 27885 ft | 403 kts | 304° |
| 2026-05-03 21:59 | -33.90158 | -59.38023 | 28285 ft | 406 kts | 304° |
| 2026-05-03 22:00 | -33.88343 | -59.40638 | 28672 ft | 408 kts | 304° |
| 2026-05-03 22:00 | -33.86515 | -59.43266 | 29069 ft | 411 kts | 304° |
| 2026-05-03 22:00 | -33.84673 | -59.45907 | 29458 ft | 413 kts | 304° |
| 2026-05-03 22:00 | -33.82815 | -59.48568 | 29860 ft | 416 kts | 303° |
| 2026-05-03 22:01 | -33.80951 | -59.51234 | 30228 ft | 419 kts | 303° |
| 2026-05-03 22:01 | -33.79069 | -59.53925 | 30557 ft | 421 kts | 303° |
| 2026-05-03 22:01 | -33.77180 | -59.56626 | 30889 ft | 423 kts | 303° |
| 2026-05-03 22:01 | -33.75278 | -59.59338 | 31211 ft | 425 kts | 303° |
| 2026-05-03 22:02 | -33.73365 | -59.62061 | 31554 ft | 427 kts | 303° |
| 2026-05-03 22:02 | -33.71448 | -59.64786 | 32025 ft | 426 kts | 303° |
| 2026-05-03 22:02 | -33.69540 | -59.67498 | 32511 ft | 424 kts | 303° |
| 2026-05-03 22:02 | -33.67642 | -59.70190 | 32983 ft | 423 kts | 303° |
| 2026-05-03 22:03 | -33.65737 | -59.72891 | 33442 ft | 422 kts | 303° |
| 2026-05-03 22:03 | -33.63840 | -59.75581 | 33938 ft | 421 kts | 302° |
| 2026-05-03 22:03 | -33.61955 | -59.78256 | 34435 ft | 417 kts | 302° |
| 2026-05-03 22:03 | -33.60091 | -59.80892 | 35035 ft | 411 kts | 302° |
| 2026-05-03 22:04 | -33.58251 | -59.83489 | 35494 ft | 408 kts | 302° |
| 2026-05-03 22:04 | -33.56417 | -59.86079 | 35894 ft | 406 kts | 302° |
| 2026-05-03 22:04 | -33.54591 | -59.88663 | 36030 ft | 405 kts | 302° |
| 2026-05-03 22:04 | -33.52798 | -59.91203 | 36065 ft | 404 kts | 302° |
| 2026-05-03 22:05 | -33.49166 | -59.96340 | 36061 ft | 404 kts | 302° |
| 2026-05-03 22:05 | -33.45527 | -60.01465 | 36055 ft | 403 kts | 302° |
| 2026-05-03 22:06 | -33.41892 | -60.06589 | 36053 ft | 406 kts | 302° |
| 2026-05-03 22:06 | -33.38217 | -60.11763 | 36051 ft | 409 kts | 302° |
| 2026-05-03 22:07 | -33.34518 | -60.16950 | 36045 ft | 410 kts | 302° |
| 2026-05-03 22:07 | -33.30829 | -60.22110 | 36046 ft | 410 kts | 302° |
| 2026-05-03 22:08 | -33.27112 | -60.27306 | 36041 ft | 410 kts | 302° |
| 2026-05-03 22:08 | -33.23405 | -60.32490 | 36040 ft | 410 kts | 302° |
| 2026-05-03 22:09 | -33.19695 | -60.37672 | 36045 ft | 410 kts | 303° |
| 2026-05-03 22:10 | -33.14231 | -60.45280 | 36042 ft | 410 kts | 303° |
| 2026-05-03 22:10 | -33.10518 | -60.50442 | 36048 ft | 410 kts | 303° |
| 2026-05-03 22:11 | -33.06804 | -60.55598 | 36049 ft | 410 kts | 303° |
| 2026-05-03 22:11 | -33.03081 | -60.60753 | 36053 ft | 410 kts | 303° |
| 2026-05-03 22:12 | -32.99363 | -60.65902 | 36055 ft | 410 kts | 303° |
| 2026-05-03 22:12 | -32.95648 | -60.71049 | 36058 ft | 410 kts | 303° |
| 2026-05-03 22:13 | -32.91923 | -60.76185 | 36060 ft | 410 kts | 303° |
| 2026-05-03 22:13 | -32.88740 | -60.81677 | 36060 ft | 400 kts | 293° |
| 2026-05-03 22:14 | -32.85931 | -60.87388 | 36057 ft | 400 kts | 293° |
| 2026-05-03 22:14 | -32.83124 | -60.93099 | 36059 ft | 400 kts | 293° |
| 2026-05-03 22:15 | -32.80304 | -60.98801 | 36055 ft | 400 kts | 294° |
| 2026-05-03 22:15 | -32.77503 | -61.04424 | 36043 ft | 390 kts | 294° |
| 2026-05-03 22:16 | -32.74777 | -61.09916 | 36041 ft | 388 kts | 293° |
| 2026-05-03 22:16 | -32.72042 | -61.15434 | 36031 ft | 387 kts | 294° |
| 2026-05-03 22:17 | -32.69302 | -61.20949 | 36036 ft | 387 kts | 294° |
| 2026-05-03 22:17 | -32.66562 | -61.26450 | 36036 ft | 388 kts | 294° |
| 2026-05-03 22:18 | -32.63804 | -61.31961 | 36035 ft | 388 kts | 294° |
| 2026-05-03 22:18 | -32.61044 | -61.37469 | 36032 ft | 388 kts | 294° |
| 2026-05-03 22:19 | -32.58747 | -61.42047 | 36034 ft | 389 kts | 294° |
| 2026-05-03 22:19 | -32.55984 | -61.47555 | 36043 ft | 389 kts | 294° |
| 2026-05-03 22:20 | -32.53222 | -61.53065 | 36040 ft | 389 kts | 294° |
| 2026-05-03 22:20 | -32.50455 | -61.58573 | 36047 ft | 389 kts | 294° |
| 2026-05-03 22:21 | -32.47678 | -61.64080 | 36043 ft | 389 kts | 294° |
| 2026-05-03 22:21 | -32.44908 | -61.69570 | 36039 ft | 388 kts | 294° |
| 2026-05-03 22:22 | -32.42138 | -61.75058 | 36039 ft | 388 kts | 294° |
| 2026-05-03 22:22 | -32.39378 | -61.80506 | 36037 ft | 388 kts | 295° |
| 2026-05-03 22:23 | -32.36597 | -61.85996 | 36036 ft | 389 kts | 295° |
| 2026-05-03 22:23 | -32.33819 | -61.91473 | 36039 ft | 389 kts | 295° |
| 2026-05-03 22:24 | -32.31030 | -61.96962 | 36038 ft | 389 kts | 295° |
| 2026-05-03 22:24 | -32.28245 | -62.02444 | 36037 ft | 389 kts | 295° |
| 2026-05-03 22:25 | -32.25458 | -62.07921 | 36037 ft | 389 kts | 295° |
| 2026-05-03 22:25 | -32.22686 | -62.13357 | 36037 ft | 389 kts | 295° |
| 2026-05-03 22:26 | -32.19883 | -62.18826 | 35953 ft | 393 kts | 295° |
| 2026-05-03 22:26 | -32.18463 | -62.21600 | 35549 ft | 394 kts | 295° |
| 2026-05-03 22:26 | -32.17045 | -62.24362 | 35135 ft | 391 kts | 295° |
| 2026-05-03 22:26 | -32.15642 | -62.27091 | 34714 ft | 388 kts | 295° |
| 2026-05-03 22:27 | -32.14252 | -62.29804 | 34276 ft | 385 kts | 295° |
| 2026-05-03 22:27 | -32.12870 | -62.32500 | 33844 ft | 383 kts | 295° |
| 2026-05-03 22:27 | -32.11499 | -62.35180 | 33409 ft | 379 kts | 295° |
| 2026-05-03 22:27 | -32.10143 | -62.37828 | 32988 ft | 376 kts | 295° |
| 2026-05-03 22:28 | -32.08795 | -62.40457 | 32566 ft | 373 kts | 295° |
| 2026-05-03 22:28 | -32.07454 | -62.43066 | 32125 ft | 370 kts | 295° |
| 2026-05-03 22:28 | -32.06127 | -62.45649 | 31737 ft | 368 kts | 295° |
| 2026-05-03 22:28 | -32.04797 | -62.48233 | 31332 ft | 366 kts | 295° |
| 2026-05-03 22:29 | -32.03495 | -62.50757 | 30940 ft | 364 kts | 296° |
| 2026-05-03 22:29 | -32.02182 | -62.53296 | 30553 ft | 362 kts | 296° |
| 2026-05-03 22:29 | -32.00873 | -62.55828 | 30163 ft | 361 kts | 296° |
| 2026-05-03 22:29 | -31.99570 | -62.58350 | 29738 ft | 359 kts | 296° |
| 2026-05-03 22:30 | -31.98276 | -62.60850 | 29367 ft | 355 kts | 296° |
| 2026-05-03 22:30 | -31.96994 | -62.63332 | 28995 ft | 352 kts | 296° |
| 2026-05-03 22:30 | -31.95735 | -62.65779 | 28643 ft | 348 kts | 296° |
| 2026-05-03 22:30 | -31.94482 | -62.68207 | 28302 ft | 345 kts | 296° |
| 2026-05-03 22:31 | -31.93225 | -62.70598 | 27948 ft | 343 kts | 300° |
| 2026-05-03 22:31 | -31.91531 | -62.72677 | 27614 ft | 363 kts | 315° |
| 2026-05-03 22:31 | -31.89514 | -62.74527 | 27284 ft | 370 kts | 316° |
| 2026-05-03 22:31 | -31.87466 | -62.76361 | 26956 ft | 370 kts | 317° |
| 2026-05-03 22:32 | -31.85422 | -62.78190 | 26631 ft | 369 kts | 317° |
| 2026-05-03 22:32 | -31.83410 | -62.79990 | 26313 ft | 367 kts | 317° |
| 2026-05-03 22:32 | -31.81382 | -62.81810 | 25989 ft | 366 kts | 317° |
| 2026-05-03 22:32 | -31.79365 | -62.83622 | 25681 ft | 364 kts | 317° |
| 2026-05-03 22:33 | -31.77357 | -62.85427 | 25331 ft | 362 kts | 317° |
| 2026-05-03 22:33 | -31.75361 | -62.87222 | 24981 ft | 360 kts | 317° |
| 2026-05-03 22:33 | -31.73377 | -62.89011 | 24630 ft | 359 kts | 317° |
| 2026-05-03 22:33 | -31.71403 | -62.90793 | 24288 ft | 357 kts | 317° |
| 2026-05-03 22:34 | -31.69440 | -62.92568 | 23950 ft | 355 kts | 317° |
| 2026-05-03 22:34 | -31.67486 | -62.94333 | 23605 ft | 354 kts | 317° |
| 2026-05-03 22:34 | -31.65542 | -62.96097 | 23208 ft | 352 kts | 317° |
| 2026-05-03 22:34 | -31.63617 | -62.97850 | 22815 ft | 350 kts | 317° |
| 2026-05-03 22:35 | -31.61702 | -62.99598 | 22427 ft | 347 kts | 317° |
| 2026-05-03 22:35 | -31.59803 | -63.01336 | 22040 ft | 345 kts | 317° |
| 2026-05-03 22:35 | -31.57884 | -63.03018 | 21653 ft | 346 kts | 324° |
| 2026-05-03 22:35 | -31.55612 | -63.04010 | 21276 ft | 355 kts | 346° |
| 2026-05-03 22:36 | -31.53144 | -63.04286 | 20905 ft | 357 kts | 351° |
| 2026-05-03 22:36 | -31.50668 | -63.04463 | 20544 ft | 355 kts | 352° |
| 2026-05-03 22:36 | -31.48203 | -63.04634 | 20181 ft | 353 kts | 352° |
| 2026-05-03 22:36 | -31.45755 | -63.04807 | 19825 ft | 351 kts | 352° |
| 2026-05-03 22:37 | -31.43320 | -63.04981 | 19471 ft | 349 kts | 352° |
| 2026-05-03 22:37 | -31.40899 | -63.05157 | 19120 ft | 347 kts | 352° |
| 2026-05-03 22:37 | -31.38495 | -63.05337 | 18778 ft | 345 kts | 352° |
| 2026-05-03 22:37 | -31.36106 | -63.05519 | 18441 ft | 344 kts | 352° |
| 2026-05-03 22:38 | -31.33756 | -63.05701 | 18080 ft | 342 kts | 352° |
| 2026-05-03 22:38 | -31.31392 | -63.05889 | 17683 ft | 339 kts | 352° |
| 2026-05-03 22:38 | -31.29047 | -63.06081 | 17301 ft | 337 kts | 352° |
| 2026-05-03 22:38 | -31.26714 | -63.06278 | 16923 ft | 335 kts | 352° |
| 2026-05-03 22:39 | -31.24391 | -63.06479 | 16536 ft | 333 kts | 352° |
| 2026-05-03 22:39 | -31.22088 | -63.06682 | 16174 ft | 331 kts | 352° |
| 2026-05-03 22:39 | -31.19792 | -63.06890 | 15809 ft | 329 kts | 352° |
| 2026-05-03 22:39 | -31.17516 | -63.07100 | 15454 ft | 328 kts | 352° |
| 2026-05-03 22:40 | -31.15250 | -63.07313 | 15097 ft | 326 kts | 352° |
| 2026-05-03 22:40 | -31.12981 | -63.07531 | 14745 ft | 324 kts | 352° |
| 2026-05-03 22:40 | -31.10771 | -63.07747 | 14396 ft | 323 kts | 352° |
| 2026-05-03 22:40 | -31.08510 | -63.07971 | 14044 ft | 321 kts | 352° |
| 2026-05-03 22:41 | -31.06308 | -63.08288 | 13685 ft | 316 kts | 342° |
| 2026-05-03 22:41 | -31.04233 | -63.09077 | 13308 ft | 313 kts | 337° |
| 2026-05-03 22:41 | -31.02219 | -63.09940 | 12927 ft | 311 kts | 336° |
| 2026-05-03 22:41 | -31.00195 | -63.10822 | 12549 ft | 310 kts | 336° |
| 2026-05-03 22:42 | -30.98181 | -63.11708 | 12178 ft | 309 kts | 336° |
| 2026-05-03 22:42 | -30.96190 | -63.12591 | 12008 ft | 302 kts | 336° |
| 2026-05-03 22:42 | -30.94232 | -63.13462 | 12025 ft | 302 kts | 336° |
| 2026-05-03 22:42 | -30.92266 | -63.14336 | 12025 ft | 302 kts | 336° |
| 2026-05-03 22:43 | -30.90299 | -63.15210 | 12025 ft | 302 kts | 336° |
| 2026-05-03 22:43 | -30.88281 | -63.16107 | 12024 ft | 302 kts | 336° |
| 2026-05-03 22:43 | -30.86375 | -63.16951 | 12026 ft | 302 kts | 336° |
| 2026-05-03 22:43 | -30.84418 | -63.17840 | 12025 ft | 301 kts | 334° |
| 2026-05-03 22:44 | -30.82521 | -63.18871 | 12026 ft | 301 kts | 332° |
| 2026-05-03 22:44 | -30.80638 | -63.19935 | 12023 ft | 301 kts | 332° |
| 2026-05-03 22:44 | -30.78778 | -63.20988 | 12026 ft | 301 kts | 332° |
| 2026-05-03 22:44 | -30.76872 | -63.22067 | 12025 ft | 301 kts | 332° |
| 2026-05-03 22:45 | -30.74987 | -63.23127 | 12069 ft | 304 kts | 331° |
| 2026-05-03 22:45 | -30.73092 | -63.24169 | 12026 ft | 305 kts | 332° |
| 2026-05-03 22:45 | -30.71166 | -63.25227 | 12030 ft | 306 kts | 332° |
| 2026-05-03 22:45 | -30.69240 | -63.26283 | 12027 ft | 306 kts | 332° |
| 2026-05-03 22:46 | -30.67399 | -63.27493 | 12023 ft | 302 kts | 316° |
| 2026-05-03 22:46 | -30.66041 | -63.29319 | 12019 ft | 298 kts | 303° |
| 2026-05-03 22:46 | -30.64859 | -63.31299 | 12023 ft | 298 kts | 302° |
| 2026-05-03 22:46 | -30.63692 | -63.33291 | 12024 ft | 298 kts | 301° |
| 2026-05-03 22:47 | -30.62529 | -63.35281 | 12026 ft | 298 kts | 301° |
| 2026-05-03 22:47 | -30.61362 | -63.37272 | 12020 ft | 298 kts | 302° |
| 2026-05-03 22:47 | -30.60195 | -63.39260 | 12022 ft | 298 kts | 302° |
| 2026-05-03 22:47 | -30.59026 | -63.41250 | 12024 ft | 298 kts | 302° |
| 2026-05-03 22:48 | -30.57858 | -63.43237 | 12020 ft | 298 kts | 301° |
| 2026-05-03 22:48 | -30.56857 | -63.45336 | 12022 ft | 296 kts | 292° |
| 2026-05-03 22:48 | -30.56006 | -63.47509 | 12023 ft | 296 kts | 291° |
| 2026-05-03 22:48 | -30.55165 | -63.49693 | 12022 ft | 296 kts | 291° |
| 2026-05-03 22:49 | -30.54325 | -63.51872 | 12029 ft | 296 kts | 291° |
| 2026-05-03 22:49 | -30.53486 | -63.54046 | 12025 ft | 296 kts | 291° |
| 2026-05-03 22:49 | -30.52643 | -63.56227 | 12031 ft | 296 kts | 291° |
| 2026-05-03 22:49 | -30.52131 | -63.58499 | 12027 ft | 291 kts | 270° |
| 2026-05-03 22:50 | -30.52271 | -63.60842 | 12026 ft | 291 kts | 262° |
| 2026-05-03 22:50 | -30.52521 | -63.63168 | 12023 ft | 291 kts | 262° |
| 2026-05-03 22:50 | -30.52781 | -63.65500 | 12023 ft | 291 kts | 262° |
| 2026-05-03 22:50 | -30.53039 | -63.67822 | 12018 ft | 291 kts | 262° |
| 2026-05-03 22:51 | -30.53300 | -63.70155 | 12021 ft | 291 kts | 261° |
| 2026-05-03 22:51 | -30.53856 | -63.72363 | 12033 ft | 290 kts | 245° |
| 2026-05-03 22:51 | -30.54784 | -63.74445 | 12028 ft | 291 kts | 242° |
| 2026-05-03 22:51 | -30.55748 | -63.76509 | 12028 ft | 291 kts | 242° |
| 2026-05-03 22:52 | -30.56713 | -63.78569 | 12022 ft | 291 kts | 242° |
| 2026-05-03 22:52 | -30.57681 | -63.80636 | 12021 ft | 291 kts | 242° |
| 2026-05-03 22:52 | -30.58645 | -63.82696 | 12022 ft | 291 kts | 242° |
| 2026-05-03 22:52 | -30.59610 | -63.84759 | 12022 ft | 291 kts | 242° |
| 2026-05-03 22:53 | -30.60572 | -63.86820 | 12020 ft | 290 kts | 242° |
| 2026-05-03 22:53 | -30.61536 | -63.88883 | 12019 ft | 290 kts | 242° |
| 2026-05-03 22:53 | -30.62496 | -63.90943 | 12021 ft | 290 kts | 242° |
| 2026-05-03 22:53 | -30.63456 | -63.93009 | 12022 ft | 290 kts | 242° |
| 2026-05-03 22:54 | -30.64413 | -63.95068 | 12020 ft | 290 kts | 242° |
| 2026-05-03 22:54 | -30.65370 | -63.97130 | 12020 ft | 290 kts | 242° |
| 2026-05-03 22:54 | -30.66329 | -63.99196 | 12023 ft | 290 kts | 242° |
| 2026-05-03 22:54 | -30.67285 | -64.01261 | 12020 ft | 290 kts | 242° |
| 2026-05-03 22:55 | -30.68241 | -64.03325 | 12027 ft | 290 kts | 242° |
| 2026-05-03 22:55 | -30.69196 | -64.05395 | 12029 ft | 290 kts | 242° |
| 2026-05-03 22:55 | -30.70137 | -64.07436 | 12031 ft | 290 kts | 242° |
| 2026-05-03 22:55 | -30.71091 | -64.09506 | 12031 ft | 291 kts | 242° |
| 2026-05-03 22:56 | -30.72045 | -64.11578 | 12028 ft | 290 kts | 242° |
| 2026-05-03 22:56 | -30.72996 | -64.13652 | 12032 ft | 291 kts | 242° |
| 2026-05-03 22:56 | -30.73945 | -64.15724 | 12029 ft | 291 kts | 242° |
| 2026-05-03 22:56 | -30.74893 | -64.17798 | 12026 ft | 291 kts | 242° |
| 2026-05-03 22:57 | -30.75844 | -64.19878 | 12031 ft | 291 kts | 242° |
| 2026-05-03 22:57 | -30.76789 | -64.21955 | 12033 ft | 291 kts | 242° |
| 2026-05-03 22:57 | -30.77730 | -64.24030 | 12027 ft | 291 kts | 242° |
| 2026-05-03 22:57 | -30.78674 | -64.26110 | 12020 ft | 291 kts | 242° |
| 2026-05-03 22:58 | -30.79618 | -64.28194 | 12029 ft | 290 kts | 242° |
| 2026-05-03 22:58 | -30.80557 | -64.30275 | 12027 ft | 290 kts | 242° |
| 2026-05-03 22:58 | -30.81493 | -64.32352 | 12024 ft | 290 kts | 243° |
| 2026-05-03 22:58 | -30.82429 | -64.34432 | 12024 ft | 290 kts | 243° |
| 2026-05-03 22:59 | -30.83365 | -64.36513 | 12012 ft | 290 kts | 243° |
| 2026-05-03 22:59 | -30.84295 | -64.38591 | 12017 ft | 290 kts | 243° |
| 2026-05-03 22:59 | -30.85219 | -64.40645 | 12008 ft | 290 kts | 242° |
| 2026-05-03 22:59 | -30.86148 | -64.42727 | 12022 ft | 289 kts | 243° |
| 2026-05-03 23:00 | -30.87075 | -64.44809 | 12018 ft | 290 kts | 243° |
| 2026-05-03 23:00 | -30.88008 | -64.46891 | 12013 ft | 290 kts | 243° |
| 2026-05-03 23:00 | -30.88939 | -64.48977 | 12020 ft | 290 kts | 243° |
| 2026-05-03 23:00 | -30.89867 | -64.51059 | 12017 ft | 289 kts | 243° |
| 2026-05-03 23:01 | -30.90795 | -64.53141 | 12020 ft | 289 kts | 243° |
| 2026-05-03 23:01 | -30.91720 | -64.55219 | 12014 ft | 289 kts | 243° |
| 2026-05-03 23:01 | -30.92643 | -64.57294 | 12012 ft | 289 kts | 243° |
| 2026-05-03 23:01 | -30.93563 | -64.59370 | 12021 ft | 289 kts | 243° |
| 2026-05-03 23:02 | -30.94482 | -64.61452 | 12012 ft | 288 kts | 243° |
| 2026-05-03 23:02 | -30.95402 | -64.63529 | 12003 ft | 289 kts | 243° |
| 2026-05-03 23:02 | -30.96308 | -64.65580 | 12014 ft | 288 kts | 243° |
| 2026-05-03 23:02 | -30.97224 | -64.67658 | 12012 ft | 288 kts | 243° |
| 2026-05-03 23:03 | -30.98378 | -64.69550 | 12015 ft | 289 kts | 223° |
| 2026-05-03 23:03 | -31.00128 | -64.70703 | 11947 ft | 293 kts | 199° |
| 2026-05-03 23:03 | -31.02156 | -64.70994 | 11590 ft | 296 kts | 185° |
| 2026-05-03 23:03 | -31.04218 | -64.71009 | 11234 ft | 296 kts | 183° |
| 2026-05-03 23:04 | -31.06271 | -64.71004 | 11017 ft | 294 kts | 183° |
| 2026-05-03 23:04 | -31.08324 | -64.71000 | 10872 ft | 296 kts | 181° |
| 2026-05-03 23:04 | -31.10403 | -64.71039 | 10898 ft | 299 kts | 183° |
| 2026-05-03 23:04 | -31.12485 | -64.71103 | 10547 ft | 300 kts | 183° |
| 2026-05-03 23:05 | -31.14565 | -64.71175 | 10230 ft | 298 kts | 183° |
| 2026-05-03 23:05 | -31.16631 | -64.71250 | 10027 ft | 295 kts | 183° |
| 2026-05-03 23:05 | -31.18693 | -64.71328 | 10008 ft | 297 kts | 183° |
| 2026-05-03 23:05 | -31.20762 | -64.71410 | 10007 ft | 298 kts | 183° |
| 2026-05-03 23:06 | -31.22828 | -64.71492 | 10008 ft | 298 kts | 183° |
| 2026-05-03 23:06 | -31.24204 | -64.71539 | 10007 ft | 298 kts | 181° |
| 2026-05-03 23:06 | -31.26924 | -64.70915 | 10009 ft | 300 kts | 164° |
| 2026-05-03 23:06 | -31.28239 | -64.70440 | 10009 ft | 300 kts | 163° |
| 2026-05-03 23:07 | -31.30879 | -64.69460 | 10006 ft | 300 kts | 163° |
| 2026-05-03 23:07 | -31.32873 | -64.68717 | 10011 ft | 300 kts | 163° |
| 2026-05-03 23:07 | -31.34190 | -64.68224 | 10007 ft | 300 kts | 163° |
| 2026-05-03 23:07 | -31.36184 | -64.67476 | 10008 ft | 300 kts | 163° |
| 2026-05-03 23:08 | -31.38173 | -64.66729 | 10007 ft | 300 kts | 163° |
| 2026-05-03 23:08 | -31.40162 | -64.65984 | 10008 ft | 300 kts | 163° |
| 2026-05-03 23:08 | -31.42151 | -64.65239 | 10006 ft | 300 kts | 163° |
| 2026-05-03 23:08 | -31.44138 | -64.64495 | 9909 ft | 298 kts | 163° |
| 2026-05-03 23:09 | -31.46112 | -64.63760 | 9554 ft | 297 kts | 163° |
| 2026-05-03 23:09 | -31.48078 | -64.63031 | 9216 ft | 295 kts | 163° |
| 2026-05-03 23:09 | -31.50029 | -64.62308 | 8887 ft | 294 kts | 163° |
| 2026-05-03 23:09 | -31.51974 | -64.61589 | 8564 ft | 292 kts | 163° |
| 2026-05-03 23:10 | -31.53909 | -64.60875 | 8245 ft | 291 kts | 163° |
| 2026-05-03 23:10 | -31.55836 | -64.60166 | 7946 ft | 289 kts | 163° |
| 2026-05-03 23:10 | -31.57753 | -64.59462 | 7640 ft | 288 kts | 163° |
| 2026-05-03 23:10 | -31.59636 | -64.58690 | 7324 ft | 287 kts | 153° |
| 2026-05-03 23:11 | -31.61145 | -64.57205 | 7053 ft | 283 kts | 124° |
| 2026-05-03 23:11 | -31.61887 | -64.55100 | 6990 ft | 282 kts | 98° |
| 2026-05-03 23:11 | -31.62117 | -64.52806 | 7000 ft | 284 kts | 94° |
| 2026-05-03 23:11 | -31.62280 | -64.50495 | 6998 ft | 284 kts | 93° |
| 2026-05-03 23:12 | -31.62432 | -64.48178 | 7002 ft | 285 kts | 93° |
| 2026-05-03 23:12 | -31.62580 | -64.45887 | 7006 ft | 285 kts | 93° |
| 2026-05-03 23:12 | -31.62729 | -64.43575 | 7005 ft | 284 kts | 93° |
| 2026-05-03 23:12 | -31.62878 | -64.41264 | 7002 ft | 284 kts | 93° |
| 2026-05-03 23:13 | -31.63025 | -64.38946 | 7007 ft | 284 kts | 93° |
| 2026-05-03 23:13 | -31.63171 | -64.36634 | 7010 ft | 284 kts | 93° |
| 2026-05-03 23:13 | -31.63319 | -64.34322 | 7005 ft | 284 kts | 93° |
| 2026-05-03 23:13 | -31.63466 | -64.32005 | 7004 ft | 284 kts | 93° |
| 2026-05-03 23:14 | -31.63612 | -64.29694 | 7005 ft | 284 kts | 93° |
| 2026-05-03 23:14 | -31.63759 | -64.27376 | 7012 ft | 285 kts | 93° |
| 2026-05-03 23:14 | -31.63905 | -64.25061 | 7008 ft | 284 kts | 93° |
| 2026-05-03 23:14 | -31.64047 | -64.22742 | 7012 ft | 284 kts | 93° |
| 2026-05-03 23:15 | -31.64187 | -64.20426 | 7011 ft | 285 kts | 93° |
| 2026-05-03 23:15 | -31.64326 | -64.18109 | 7014 ft | 284 kts | 93° |
| 2026-05-03 23:15 | -31.64462 | -64.15814 | 7012 ft | 285 kts | 93° |
| 2026-05-03 23:15 | -31.64597 | -64.13499 | 7016 ft | 284 kts | 93° |
| 2026-05-03 23:16 | -31.64732 | -64.11183 | 7013 ft | 285 kts | 93° |
| 2026-05-03 23:16 | -31.64866 | -64.08863 | 7017 ft | 285 kts | 93° |
| 2026-05-03 23:16 | -31.65000 | -64.06544 | 7017 ft | 285 kts | 93° |
| 2026-05-03 23:16 | -31.65131 | -64.04222 | 7013 ft | 285 kts | 93° |
| 2026-05-03 23:17 | -31.65262 | -64.01902 | 7018 ft | 285 kts | 93° |
| 2026-05-03 23:17 | -31.65316 | -63.99581 | 7015 ft | 284 kts | 81° |
| 2026-05-03 23:17 | -31.64681 | -63.97423 | 6906 ft | 279 kts | 58° |
| 2026-05-03 23:17 | -31.63611 | -63.95530 | 6575 ft | 278 kts | 53° |
| 2026-05-03 23:18 | -31.62494 | -63.93689 | 6254 ft | 276 kts | 53° |
| 2026-05-03 23:18 | -31.61378 | -63.91866 | 6049 ft | 273 kts | 52° |
| 2026-05-03 23:18 | -31.60266 | -63.90054 | 6014 ft | 274 kts | 52° |
| 2026-05-03 23:18 | -31.59149 | -63.88238 | 6021 ft | 275 kts | 52° |
| 2026-05-03 23:19 | -31.58031 | -63.86421 | 6024 ft | 275 kts | 52° |
| 2026-05-03 23:19 | -31.56911 | -63.84605 | 6029 ft | 275 kts | 52° |
| 2026-05-03 23:19 | -31.55794 | -63.82793 | 6024 ft | 275 kts | 52° |
| 2026-05-03 23:19 | -31.54673 | -63.80976 | 6026 ft | 275 kts | 52° |
| 2026-05-03 23:20 | -31.53553 | -63.79163 | 6026 ft | 275 kts | 52° |
| 2026-05-03 23:20 | -31.52432 | -63.77350 | 6026 ft | 275 kts | 52° |
| 2026-05-03 23:20 | -31.51308 | -63.75533 | 6031 ft | 275 kts | 52° |
| 2026-05-03 23:20 | -31.50203 | -63.73748 | 5825 ft | 273 kts | 52° |
| 2026-05-03 23:21 | -31.49093 | -63.71955 | 5505 ft | 271 kts | 52° |
| 2026-05-03 23:21 | -31.47989 | -63.70174 | 5220 ft | 269 kts | 52° |
| 2026-05-03 23:21 | -31.46695 | -63.68640 | 5043 ft | 264 kts | 32° |
| 2026-05-03 23:21 | -31.45019 | -63.67824 | 5032 ft | 262 kts | 9° |
| 2026-05-03 23:22 | -31.41572 | -63.68793 | 5042 ft | 262 kts | 322° |
| 2026-05-03 23:22 | -31.40406 | -63.70425 | 5038 ft | 264 kts | 298° |
| 2026-05-03 23:22 | -31.39909 | -63.72459 | 5029 ft | 267 kts | 275° |
| 2026-05-03 23:23 | -31.40064 | -63.74630 | 5033 ft | 269 kts | 263° |
| 2026-05-03 23:23 | -31.40326 | -63.76830 | 5031 ft | 269 kts | 264° |
| 2026-05-03 23:23 | -31.40581 | -63.79000 | 5029 ft | 269 kts | 264° |
| 2026-05-03 23:23 | -31.40832 | -63.81169 | 5025 ft | 269 kts | 264° |
| 2026-05-03 23:24 | -31.41077 | -63.83311 | 5028 ft | 269 kts | 264° |
| 2026-05-03 23:24 | -31.41322 | -63.85480 | 5034 ft | 269 kts | 264° |
| 2026-05-03 23:24 | -31.41567 | -63.87649 | 5030 ft | 269 kts | 264° |
| 2026-05-03 23:24 | -31.41810 | -63.89817 | 5021 ft | 269 kts | 265° |
| 2026-05-03 23:25 | -31.42039 | -63.91983 | 5018 ft | 268 kts | 266° |
| 2026-05-03 23:25 | -31.42206 | -63.94164 | 4921 ft | 268 kts | 268° |
| 2026-05-03 23:25 | -31.42337 | -63.96334 | 4795 ft | 267 kts | 268° |
| 2026-05-03 23:25 | -31.42456 | -63.98496 | 4664 ft | 267 kts | 268° |
| 2026-05-03 23:26 | -31.42574 | -64.00665 | 4526 ft | 267 kts | 268° |
| 2026-05-03 23:26 | -31.42695 | -64.02832 | 4384 ft | 265 kts | 268° |
| 2026-05-03 23:26 | -31.42819 | -64.04978 | 4171 ft | 260 kts | 268° |
| 2026-05-03 23:26 | -31.42940 | -64.07015 | 4099 ft | 241 kts | 268° |
| 2026-05-03 23:27 | -31.43054 | -64.08889 | 4007 ft | 222 kts | 269° |
| 2026-05-03 23:27 | -31.43161 | -64.10646 | 3920 ft | 211 kts | 269° |
| 2026-05-03 23:27 | -31.43262 | -64.12313 | 3841 ft | 198 kts | 269° |
| 2026-05-03 23:27 | -31.43354 | -64.13861 | 3735 ft | 182 kts | 270° |
| 2026-05-03 23:28 | -31.43355 | -64.15255 | 3644 ft | 161 kts | 285° |
| 2026-05-03 23:28 | -31.42967 | -64.16412 | 3602 ft | 148 kts | 307° |
| 2026-05-03 23:28 | -31.42282 | -64.17272 | 3421 ft | 142 kts | 327° |
| 2026-05-03 23:28 | -31.41461 | -64.17855 | 3289 ft | 135 kts | 333° |
| 2026-05-03 23:29 | -31.40659 | -64.18410 | 3119 ft | 133 kts | 333° |
| 2026-05-03 23:29 | -31.39867 | -64.18961 | 2974 ft | 132 kts | 333° |
| 2026-05-03 23:29 | -31.39078 | -64.19510 | 2825 ft | 132 kts | 333° |
| 2026-05-03 23:29 | -31.38290 | -64.20059 | 2680 ft | 132 kts | 333° |
| 2026-05-03 23:30 | -31.37489 | -64.20581 | 2530 ft | 131 kts | 343° |
| 2026-05-03 23:30 | -31.36616 | -64.20744 | 2410 ft | 129 kts | 2° |
| 2026-05-03 23:30 | -31.35714 | -64.20755 | 2269 ft | 130 kts | 0° |
| 2026-05-03 23:30 | -31.34799 | -64.20771 | 2048 ft | 129 kts | 0° |
| 2026-05-03 23:31 | -31.33912 | -64.20788 | 1878 ft | 129 kts | 1° |
| 2026-05-03 23:31 | -31.33011 | -64.20812 | 1741 ft | 130 kts | 0° |
| 2026-05-03 23:31 | -31.32106 | -64.20805 | 1631 ft | 128 kts | 1° |
| 2026-05-03 23:31 | -31.31339 | -64.20822 | 1619 ft | 88 kts | 358° |
| 2026-05-03 23:32 | -31.30910 | -64.20829 | 1618 ft | 35 kts | 357° |
| 2026-05-03 23:32 | -31.30797 | -64.20834 | 1612 ft | 3 kts | 81° |
| 2026-05-03 23:32 | -31.30822 | -64.20834 | 1619 ft | 9 kts | 184° |
| 2026-05-03 23:32 | -31.30938 | -64.20837 | 1617 ft | 23 kts | 177° |
| 2026-05-03 23:33 | -31.31120 | -64.20835 | 1618 ft | 30 kts | 180° |
| 2026-05-03 23:33 | -31.31332 | -64.20831 | 1619 ft | 26 kts | 179° |
| 2026-05-03 23:33 | -31.31460 | -64.20876 | 1621 ft | 15 kts | 240° |
| 2026-05-03 23:33 | -31.31465 | -64.20971 | 1613 ft | 7 kts | 270° |
| 2026-05-03 23:34 | -31.31465 | -64.20975 | 1613 ft | 0 kts | 270° |
| 2026-05-03 23:34 | -31.31465 | -64.20983 | 1613 ft | 3 kts | 269° |
| 2026-05-03 23:34 | -31.31467 | -64.21016 | 1613 ft | 4 kts | 264° |
| 2026-05-03 23:35 | -31.31473 | -64.21060 | 1616 ft | 7 kts | 259° |
| 2026-05-03 23:35 | -31.31471 | -64.21114 | 1613 ft | 7 kts | 265° |
| 2026-05-03 23:35 | -31.31480 | -64.21156 | 1617 ft | 5 kts | 256° |
| 2026-05-03 23:35 | -31.31485 | -64.21177 | 1614 ft | 2 kts | 254° |
| 2026-05-03 23:36 | -31.31487 | -64.21184 | 1613 ft | 0 kts | 253° |